Time;durP1;ratioP1;P1;durP2;ratioP2;P2;SDS_P1;SDS_P2;PMS_P1;PMS_P2;Temp;Humidity;BMP_temperature;BMP_pressure;BME280_temperature;BME280_humidity;BME280_pressure;Samples;Min_cycle;Max_cycle;Signal;HPM_P1;HPM_P2
2021/01/02 00:01:16;;;;;;;1.35;0.90;;;20.60;43.90;;;;;;6302143;28;20059;-51
2021/01/02 00:04:50;;;;;;;0.88;0.80;;;20.60;43.90;;;;;;6304376;28;20028;-48
2021/01/02 00:08:06;;;;;;;0.80;0.80;;;20.60;44.00;;;;;;6301663;28;20396;-48
2021/01/02 00:11:23;;;;;;;1.17;0.82;;;20.60;44.00;;;;;;6301556;28;20473;-48
2021/01/02 00:14:47;;;;;;;0.90;0.80;;;20.50;43.90;;;;;;6301232;28;20031;-55
2021/01/02 00:17:59;;;;;;;0.80;0.70;;;20.50;43.90;;;;;;6301441;28;20028;-48
2021/01/02 00:21:21;;;;;;;1.35;0.80;;;20.50;44.00;;;;;;6301047;28;20027;-52
2021/01/02 00:24:51;;;;;;;0.80;0.70;;;20.50;44.10;;;;;;6299872;28;20023;-50
2021/01/02 00:28:16;;;;;;;1.35;0.80;;;20.50;44.10;;;;;;6291592;28;20040;-48
2021/01/02 00:31:54;;;;;;;0.63;0.60;;;20.50;44.00;;;;;;6282052;28;20050;-52
2021/01/02 00:35:02;;;;;;;0.80;0.70;;;20.50;44.10;;;;;;6276277;28;20074;-50
2021/01/02 00:38:05;;;;;;;0.80;0.52;;;20.50;44.10;;;;;;6276362;28;20086;-51
2021/01/02 00:41:06;;;;;;;0.90;0.80;;;20.50;44.10;;;;;;6276000;28;20028;-51
2021/01/02 00:44:12;;;;;;;0.77;0.73;;;20.50;44.80;;;;;;6276070;28;20025;-48
2021/01/02 00:47:14;;;;;;;1.23;0.88;;;20.50;44.10;;;;;;6300592;28;20038;-50
2021/01/02 00:50:17;;;;;;;0.80;0.68;;;20.50;44.10;;;;;;6300548;28;20048;-49
2021/01/02 00:53:49;;;;;;;0.70;0.70;;;20.50;44.10;;;;;;6300888;28;20034;-51
2021/01/02 00:57:10;;;;;;;0.85;0.80;;;20.50;44.10;;;;;;6300401;28;20617;-54
2021/01/02 01:00:16;;;;;;;0.80;0.70;;;20.40;44.10;;;;;;6296797;28;20024;-48
2021/01/02 01:03:35;;;;;;;1.00;0.90;;;20.40;44.10;;;;;;6275704;28;20031;-48
2021/01/02 01:06:40;;;;;;;0.90;0.68;;;20.40;44.10;;;;;;6290469;28;20031;-50
2021/01/02 01:09:41;;;;;;;;;;;20.40;44.20;;;;;;6301093;28;20618;-52
2021/01/02 01:12:43;;;;;;;0.93;0.80;;;20.40;44.10;;;;;;6300177;28;19914;-55
2021/01/02 01:15:44;;;;;;;0.90;0.70;;;20.40;44.10;;;;;;6300196;28;20473;-50
2021/01/02 01:19:11;;;;;;;0.80;0.80;;;20.40;44.20;;;;;;6300339;28;20103;-49
2021/01/02 01:22:16;;;;;;;0.90;0.80;;;20.40;44.30;;;;;;6282169;28;20496;-52
2021/01/02 01:25:46;;;;;;;0.90;0.80;;;20.40;44.30;;;;;;6275426;28;20044;-53
2021/01/02 01:28:54;;;;;;;0.63;0.63;;;20.30;44.10;;;;;;6277667;28;20176;-52
2021/01/02 01:31:57;;;;;;;0.77;0.60;;;20.30;44.80;;;;;;6299894;28;20122;-49
2021/01/02 01:35:01;;;;;;;0.80;0.65;;;20.30;44.20;;;;;;6301826;28;20031;-54
2021/01/02 01:38:03;;;;;;;1.33;0.75;;;20.40;44.20;;;;;;6285405;28;20032;-49
2021/01/02 01:41:15;;;;;;;1.13;0.82;;;20.30;44.10;;;;;;6289266;28;20030;-49
2021/01/02 01:44:51;;;;;;;0.73;0.50;;;20.40;44.20;;;;;;6308272;28;20028;-50
2021/01/02 01:48:04;;;;;;;0.82;0.80;;;20.30;44.10;;;;;;6303536;28;20031;-49
2021/01/02 01:51:11;;;;;;;0.68;0.50;;;20.30;44.20;;;;;;6308272;28;20408;-48
2021/01/02 01:54:39;;;;;;;0.85;0.70;;;20.30;44.20;;;;;;6308099;28;20028;-51
2021/01/02 01:57:41;;;;;;;0.70;0.60;;;20.30;44.30;;;;;;6291372;28;20027;-49
2021/01/02 02:00:46;;;;;;;0.70;0.60;;;20.30;44.30;;;;;;6283416;28;20027;-52
2021/01/02 02:03:58;;;;;;;;;;;20.30;44.30;;;;;;6283433;28;20064;-47
2021/01/02 02:07:01;;;;;;;0.55;0.52;;;20.30;44.30;;;;;;6283275;28;19908;-49
2021/01/02 02:10:04;;;;;;;0.50;0.50;;;20.30;44.30;;;;;;6282843;28;20505;-48
2021/01/02 02:13:43;;;;;;;0.60;0.60;;;20.30;44.30;;;;;;6300756;28;20074;-48
2021/01/02 02:16:51;;;;;;;0.60;0.55;;;20.30;44.30;;;;;;6183377;28;20074;-48
2021/01/02 02:20:10;;;;;;;0.35;0.32;;;20.30;44.30;;;;;;6199185;28;20555;-49
2021/01/02 02:23:13;;;;;;;0.95;0.63;;;20.30;44.30;;;;;;6308023;28;20106;-55
2021/01/02 02:26:30;;;;;;;0.70;0.60;;;20.30;44.30;;;;;;6307601;28;20020;-53
2021/01/02 02:29:37;;;;;;;0.47;0.43;;;20.30;44.30;;;;;;6283025;28;20036;-54
2021/01/02 02:32:45;;;;;;;0.95;0.52;;;20.30;44.30;;;;;;6283148;28;20035;-50
2021/01/02 02:35:46;;;;;;;1.20;0.52;;;20.30;44.30;;;;;;6282879;28;20017;-50
2021/01/02 02:38:46;;;;;;;0.65;0.60;;;20.30;44.30;;;;;;6282648;28;20546;-53
2021/01/02 02:41:52;;;;;;;0.60;0.40;;;20.30;44.30;;;;;;6282719;28;20028;-50
2021/01/02 02:44:54;;;;;;;1.15;0.60;;;20.30;44.30;;;;;;6282969;28;20390;-50
2021/01/02 02:47:58;;;;;;;0.55;0.50;;;20.30;45.10;;;;;;6291067;28;20146;-51
2021/01/02 02:50:59;;;;;;;1.10;0.65;;;20.20;44.30;;;;;;6303684;28;20499;-51
2021/01/02 02:54:00;;;;;;;0.50;0.50;;;20.30;44.40;;;;;;6303545;28;20029;-48
2021/01/02 02:57:00;;;;;;;0.55;0.47;;;20.20;44.30;;;;;;6303769;28;20027;-48
2021/01/02 03:00:01;;;;;;;0.50;0.50;;;20.20;44.30;;;;;;6303406;28;20020;-51
2021/01/02 03:03:03;;;;;;;0.52;0.50;;;20.20;44.30;;;;;;6295365;28;20028;-49
2021/01/02 03:06:04;;;;;;;1.23;0.70;;;20.20;44.30;;;;;;6278321;28;20024;-50
2021/01/02 03:09:05;;;;;;;0.47;0.40;;;20.20;44.30;;;;;;6294180;28;20515;-50
2021/01/02 03:12:06;;;;;;;0.65;0.47;;;20.20;44.30;;;;;;6303002;28;20028;-52
2021/01/02 03:15:08;;;;;;;0.70;0.50;;;20.20;44.30;;;;;;6302712;28;20031;-48
2021/01/02 03:18:10;;;;;;;1.25;0.50;;;20.20;45.00;;;;;;6296331;28;20043;-49
2021/01/02 03:21:11;;;;;;;0.77;0.50;;;20.20;44.40;;;;;;6284691;28;20016;-51
2021/01/02 03:24:12;;;;;;;0.88;0.60;;;20.20;44.40;;;;;;6302394;28;20073;-51
2021/01/02 03:27:15;;;;;;;0.43;0.43;;;20.20;44.40;;;;;;6302274;28;20031;-49
2021/01/02 03:30:16;;;;;;;0.80;0.40;;;20.20;44.40;;;;;;6294342;28;20042;-50
2021/01/02 03:33:17;;;;;;;0.70;0.50;;;20.20;44.30;;;;;;6302193;28;20020;-48
2021/01/02 03:36:17;;;;;;;0.73;0.50;;;20.20;44.30;;;;;;6302139;28;20405;-48
2021/01/02 03:39:18;;;;;;;0.85;0.63;;;20.20;44.40;;;;;;6302170;28;20051;-48
2021/01/02 03:42:18;;;;;;;0.52;0.52;;;20.20;44.40;;;;;;6301824;28;20531;-53
2021/01/02 03:45:19;;;;;;;0.43;0.43;;;20.20;44.40;;;;;;6281286;28;20052;-49
2021/01/02 03:48:20;;;;;;;0.50;0.50;;;20.20;44.40;;;;;;6281315;28;20035;-50
2021/01/02 03:51:25;;;;;;;0.82;0.60;;;20.20;44.40;;;;;;6301567;28;20028;-48
2021/01/02 03:54:26;;;;;;;0.50;0.40;;;20.20;44.40;;;;;;6289444;28;20033;-48
2021/01/02 03:57:26;;;;;;;0.52;0.52;;;20.20;44.40;;;;;;6280895;28;20115;-51
2021/01/02 04:00:27;;;;;;;1.02;0.60;;;20.10;44.40;;;;;;6300469;28;20492;-49
2021/01/02 04:03:27;;;;;;;0.85;0.57;;;20.10;44.40;;;;;;6301562;28;20081;-49
2021/01/02 04:06:28;;;;;;;0.60;0.60;;;20.10;44.50;;;;;;6301414;28;20582;-49
2021/01/02 04:09:28;;;;;;;0.40;0.40;;;20.10;44.50;;;;;;6319196;28;20036;-49
2021/01/02 04:12:29;;;;;;;1.25;0.65;;;20.10;44.50;;;;;;6300766;28;20063;-48
2021/01/02 04:15:29;;;;;;;0.35;0.35;;;20.10;44.50;;;;;;6301819;28;20016;-51
2021/01/02 04:18:30;;;;;;;0.52;0.52;;;20.10;44.50;;;;;;6300895;28;20055;-50
2021/01/02 04:21:32;;;;;;;0.43;0.43;;;20.10;44.60;;;;;;6277347;28;20021;-50
2021/01/02 04:24:32;;;;;;;0.70;0.57;;;20.10;44.50;;;;;;6275296;28;20052;-51
2021/01/02 04:27:33;;;;;;;0.68;0.57;;;20.10;44.50;;;;;;6276016;28;20037;-48
2021/01/02 04:30:33;;;;;;;0.57;0.55;;;20.10;44.50;;;;;;6278469;28;20028;-50
2021/01/02 04:33:34;;;;;;;0.68;0.50;;;20.10;44.50;;;;;;6275626;28;20371;-49
2021/01/02 04:36:36;;;;;;;0.90;0.70;;;20.10;44.50;;;;;;6298338;28;20031;-51
2021/01/02 04:39:36;;;;;;;0.60;0.52;;;20.10;44.60;;;;;;6300549;28;20031;-51
2021/01/02 04:42:40;;;;;;;0.75;0.60;;;20.10;44.60;;;;;;6300445;28;20020;-50
2021/01/02 04:45:41;;;;;;;0.50;0.50;;;20.10;44.50;;;;;;6300633;28;20396;-49
2021/01/02 04:48:44;;;;;;;0.93;0.45;;;20.10;44.60;;;;;;6300626;28;20096;-49
2021/01/02 04:51:44;;;;;;;0.40;0.40;;;20.10;44.60;;;;;;6278256;28;20020;-50
2021/01/02 04:54:49;;;;;;;0.45;0.45;;;20.10;44.60;;;;;;6279418;28;20071;-49
2021/01/02 04:57:51;;;;;;;0.80;0.50;;;20.00;44.50;;;;;;6300593;28;20016;-50
2021/01/02 05:00:54;;;;;;;0.55;0.55;;;20.00;44.50;;;;;;6298709;28;20031;-52
2021/01/02 05:03:54;;;;;;;0.57;0.47;;;20.00;44.50;;;;;;6290944;28;20028;-49
2021/01/02 05:06:55;;;;;;;0.50;0.50;;;20.00;44.60;;;;;;6295724;28;20059;-54
2021/01/02 05:09:57;;;;;;;0.85;0.60;;;20.10;44.70;;;;;;6299634;28;20031;-50
2021/01/02 05:13:14;;;;;;;0.70;0.60;;;20.00;44.60;;;;;;6299785;28;20457;-54
2021/01/02 05:16:20;;;;;;;0.50;0.50;;;20.10;44.60;;;;;;6285860;28;20025;-49
2021/01/02 05:19:21;;;;;;;0.47;0.40;;;20.10;44.60;;;;;;6275049;28;20032;-49
2021/01/02 05:22:24;;;;;;;0.77;0.70;;;20.20;44.60;;;;;;6297343;28;20477;-54
2021/01/02 05:25:26;;;;;;;0.50;0.50;;;20.20;44.60;;;;;;6299564;28;20137;-51
2021/01/02 05:28:26;;;;;;;0.60;0.50;;;20.20;44.70;;;;;;6300112;28;20396;-52
2021/01/02 05:31:28;;;;;;;0.75;0.70;;;20.20;44.70;;;;;;6288257;28;20032;-49
2021/01/02 05:34:30;;;;;;;0.68;0.50;;;20.20;44.70;;;;;;6299957;28;20458;-52
2021/01/02 05:37:31;;;;;;;0.50;0.50;;;20.20;44.80;;;;;;6317542;28;20036;-50
2021/01/02 05:40:33;;;;;;;0.60;0.50;;;20.20;44.80;;;;;;6295150;28;20097;-49
2021/01/02 05:43:34;;;;;;;0.65;0.52;;;20.20;44.80;;;;;;6274865;28;20447;-52
2021/01/02 05:46:35;;;;;;;0.52;0.47;;;20.20;44.80;;;;;;6274533;28;20024;-51
2021/01/02 05:49:39;;;;;;;0.70;0.60;;;20.20;44.90;;;;;;6274698;28;20042;-51
2021/01/02 05:52:48;;;;;;;0.40;0.40;;;20.20;44.90;;;;;;6274389;28;20029;-50
2021/01/02 05:56:04;;;;;;;0.82;0.43;;;20.20;44.90;;;;;;6274938;28;20116;-51
2021/01/02 05:59:05;;;;;;;0.50;0.45;;;20.20;45.00;;;;;;6273902;28;20032;-51
2021/01/02 06:02:24;;;;;;;0.63;0.40;;;20.20;44.90;;;;;;6288897;28;20370;-49
2021/01/02 06:05:25;;;;;;;1.02;0.50;;;20.20;45.00;;;;;;6299699;28;20507;-51
2021/01/02 06:08:40;;;;;;;0.70;0.60;;;20.20;44.90;;;;;;6299380;28;20028;-55
2021/01/02 06:11:48;;;;;;;0.67;0.40;;;20.20;45.00;;;;;;6299085;28;20115;-49
2021/01/02 06:14:51;;;;;;;0.50;0.40;;;20.20;45.00;;;;;;6299485;28;20577;-49
2021/01/02 06:17:53;;;;;;;0.57;0.50;;;20.20;45.10;;;;;;6299164;28;20024;-49
2021/01/02 06:20:56;;;;;;;0.73;0.50;;;20.20;45.00;;;;;;6299238;28;20073;-53
2021/01/02 06:23:57;;;;;;;0.55;0.40;;;20.20;45.10;;;;;;6278117;28;20566;-52
2021/01/02 06:26:59;;;;;;;0.55;0.40;;;20.20;45.00;;;;;;6287485;28;20035;-50
2021/01/02 06:30:00;;;;;;;0.75;0.63;;;20.20;45.10;;;;;;6290893;28;20024;-53
2021/01/02 06:33:01;;;;;;;1.33;0.60;;;20.20;45.10;;;;;;6295245;28;20026;-50
2021/01/02 06:36:03;;;;;;;0.52;0.52;;;20.20;45.10;;;;;;6303456;28;20024;-54
2021/01/02 06:39:20;;;;;;;0.43;0.43;;;20.20;45.00;;;;;;6279471;28;20055;-54
2021/01/02 06:42:31;;;;;;;0.85;0.50;;;20.20;45.20;;;;;;6287647;28;20077;-53
2021/01/02 06:45:38;;;;;;;0.70;0.55;;;20.20;45.10;;;;;;6303640;28;20024;-50
2021/01/02 06:48:40;;;;;;;0.70;0.50;;;20.20;45.20;;;;;;6303021;28;20028;-55
2021/01/02 06:51:49;;;;;;;0.40;0.40;;;20.20;45.10;;;;;;6301019;28;20027;-49
2021/01/02 06:54:50;;;;;;;0.55;0.55;;;20.20;45.20;;;;;;6278054;28;20055;-50
2021/01/02 06:57:51;;;;;;;0.40;0.40;;;20.20;45.10;;;;;;6278475;28;20111;-52
2021/01/02 07:00:52;;;;;;;0.50;0.50;;;20.20;45.20;;;;;;6295889;28;20051;-51
2021/01/02 07:03:52;;;;;;;0.52;0.50;;;20.20;45.30;;;;;;6297289;28;20477;-51
2021/01/02 07:06:53;;;;;;;0.70;0.60;;;20.20;45.20;;;;;;6321940;28;20028;-55
2021/01/02 07:09:53;;;;;;;0.43;0.43;;;20.20;45.30;;;;;;6297826;28;20649;-49
2021/01/02 07:13:09;;;;;;;0.70;0.50;;;20.20;45.30;;;;;;6287413;28;20115;-49
2021/01/02 07:16:29;;;;;;;1.00;0.50;;;20.20;45.30;;;;;;6302098;28;20024;-50
2021/01/02 07:19:34;;;;;;;0.60;0.50;;;20.20;45.30;;;;;;6302679;28;20024;-51
2021/01/02 07:22:34;;;;;;;;;;;20.20;45.30;;;;;;6316983;28;20019;-53
2021/01/02 07:25:35;;;;;;;0.85;0.55;;;20.20;45.30;;;;;;6303183;28;20024;-50
2021/01/02 07:28:51;;;;;;;0.50;0.50;;;20.20;45.30;;;;;;6301631;28;20036;-50
2021/01/02 07:31:53;;;;;;;0.77;0.60;;;20.20;45.30;;;;;;6276838;28;20078;-51
2021/01/02 07:35:00;;;;;;;0.68;0.50;;;20.20;45.30;;;;;;6276996;28;20024;-52
2021/01/02 07:38:01;;;;;;;0.50;0.50;;;20.20;45.30;;;;;;6284567;28;20028;-51
2021/01/02 07:41:03;;;;;;;0.68;0.40;;;20.20;45.30;;;;;;6302021;28;20024;-53
2021/01/02 07:44:04;;;;;;;3.00;0.50;;;20.20;45.30;;;;;;6300778;28;20085;-49
2021/01/02 07:47:06;;;;;;;0.65;0.40;;;20.20;45.30;;;;;;6301893;28;20052;-50
2021/01/02 07:50:11;;;;;;;0.57;0.43;;;20.20;45.30;;;;;;6301657;28;20024;-49
2021/01/02 07:53:12;;;;;;;0.50;0.50;;;20.20;45.30;;;;;;6300674;28;20086;-50
2021/01/02 07:56:32;;;;;;;0.50;0.50;;;20.20;45.30;;;;;;6301306;28;20028;-49
2021/01/02 07:59:37;;;;;;;0.60;0.40;;;20.20;45.30;;;;;;6301592;28;20431;-48
2021/01/02 08:02:41;;;;;;;0.55;0.50;;;20.20;45.30;;;;;;6293593;28;20413;-52
2021/01/02 08:05:42;;;;;;;0.88;0.60;;;20.20;46.00;;;;;;6275702;28;20024;-50
2021/01/02 08:08:57;;;;;;;0.63;0.60;;;20.20;45.30;;;;;;6284914;28;20500;-50
2021/01/02 08:12:08;;;;;;;0.75;0.57;;;20.20;45.30;;;;;;6296556;28;20085;-50
2021/01/02 08:15:10;;;;;;;0.80;0.70;;;20.20;45.30;;;;;;6300391;28;20040;-52
2021/01/02 08:18:11;;;;;;;0.50;0.50;;;20.20;45.40;;;;;;6318531;28;20086;-48
2021/01/02 08:21:12;;;;;;;0.52;0.50;;;20.20;45.40;;;;;;6301141;28;20051;-49
2021/01/02 08:24:12;;;;;;;1.27;0.90;;;20.20;45.30;;;;;;6298504;28;20047;-48
2021/01/02 08:27:13;;;;;;;0.45;0.40;;;20.20;45.30;;;;;;6317606;28;20120;-51
2021/01/02 08:30:15;;;;;;;0.63;0.52;;;20.20;45.40;;;;;;6309590;28;20027;-50
2021/01/02 08:33:16;;;;;;;0.70;0.60;;;20.20;45.40;;;;;;6299318;28;20118;-50
2021/01/02 08:36:16;;;;;;;0.52;0.52;;;20.20;45.40;;;;;;6276367;28;20073;-50
2021/01/02 08:39:20;;;;;;;0.77;0.60;;;20.20;45.30;;;;;;6282024;28;20021;-53
2021/01/02 08:42:20;;;;;;;0.82;0.73;;;20.20;45.40;;;;;;6294394;28;20532;-49
2021/01/02 08:45:39;;;;;;;0.60;0.50;;;20.20;45.40;;;;;;6274986;28;20031;-49
2021/01/02 08:48:47;;;;;;;0.63;0.52;;;20.20;45.40;;;;;;6274924;28;20021;-51
2021/01/02 08:51:47;;;;;;;0.70;0.60;;;20.20;45.40;;;;;;6275075;28;20029;-51
2021/01/02 08:54:50;;;;;;;0.80;0.60;;;20.20;45.40;;;;;;6295910;28;20036;-52
2021/01/02 08:57:54;;;;;;;0.70;0.70;;;20.20;45.40;;;;;;6300176;28;20081;-49
2021/01/02 09:00:57;;;;;;;0.80;0.70;;;20.20;45.40;;;;;;6282579;28;20017;-53
2021/01/02 09:04:13;;;;;;;0.50;0.50;;;20.20;45.40;;;;;;6284146;28;20036;-51
2021/01/02 09:07:16;;;;;;;0.50;0.47;;;20.20;45.40;;;;;;6275827;28;20031;-52
2021/01/02 09:10:18;;;;;;;0.90;0.60;;;20.20;45.20;;;;;;6285282;28;20123;-51
2021/01/02 09:13:20;;;;;;;0.57;0.52;;;20.30;45.20;;;;;;6288505;28;20473;-50
2021/01/02 09:16:21;;;;;;;0.50;0.50;;;20.30;45.10;;;;;;6275385;28;20149;-50
2021/01/02 09:19:24;;;;;;;0.57;0.52;;;20.40;45.10;;;;;;6276659;28;20115;-49
2021/01/02 09:22:25;;;;;;;0.40;0.40;;;20.50;45.10;;;;;;6292786;28;20427;-49
2021/01/02 09:25:32;;;;;;;0.77;0.70;;;20.50;45.10;;;;;;6274118;28;20033;-51
2021/01/02 09:28:42;;;;;;;0.52;0.40;;;20.60;45.20;;;;;;6275324;28;20062;-51
2021/01/02 09:31:44;;;;;;;0.65;0.55;;;20.60;45.10;;;;;;6279922;28;20028;-53
2021/01/02 09:34:45;;;;;;;1.42;0.68;;;20.60;45.20;;;;;;6276391;28;20024;-50
2021/01/02 09:37:45;;;;;;;0.95;0.57;;;20.70;45.20;;;;;;6299483;28;20023;-50
2021/01/02 09:40:46;;;;;;;0.63;0.50;;;20.70;45.20;;;;;;6289223;28;20103;-49
2021/01/02 09:43:47;;;;;;;0.80;0.50;;;20.70;45.10;;;;;;6282137;28;20032;-52
2021/01/02 09:46:49;;;;;;;0.70;0.60;;;20.70;45.20;;;;;;6274812;28;20106;-49
2021/01/02 09:49:50;;;;;;;1.00;0.63;;;20.80;45.20;;;;;;6275396;28;20044;-53
2021/01/02 09:52:51;;;;;;;0.40;0.40;;;20.80;45.20;;;;;;6297905;28;20035;-48
2021/01/02 09:55:51;;;;;;;0.80;0.70;;;20.80;45.20;;;;;;6299214;28;20069;-48
2021/01/02 09:58:53;;;;;;;0.50;0.50;;;20.80;45.20;;;;;;6304248;28;20020;-51
2021/01/02 10:01:53;;;;;;;0.50;0.50;;;20.80;45.20;;;;;;6287608;28;20021;-50
2021/01/02 10:04:54;;;;;;;0.85;0.60;;;20.80;45.20;;;;;;6279583;28;20490;-51
2021/01/02 10:07:55;;;;;;;0.52;0.40;;;20.80;45.20;;;;;;6294549;28;20078;-54
2021/01/02 10:10:55;;;;;;;0.50;0.50;;;20.80;45.20;;;;;;6285850;28;20024;-52
2021/01/02 10:13:56;;;;;;;0.60;0.57;;;20.80;45.10;;;;;;6286771;28;20488;-51
2021/01/02 10:16:56;;;;;;;0.50;0.50;;;20.90;45.20;;;;;;6278964;28;20415;-49
2021/01/02 10:19:59;;;;;;;0.50;0.47;;;20.90;45.10;;;;;;6279244;28;20062;-51
2021/01/02 10:22:59;;;;;;;0.68;0.50;;;20.90;45.20;;;;;;6315067;28;20035;-51
2021/01/02 10:26:00;;;;;;;0.70;0.60;;;20.90;45.20;;;;;;6303989;28;20024;-52
2021/01/02 10:29:04;;;;;;;0.75;0.55;;;20.90;45.00;;;;;;6319951;28;20062;-51
2021/01/02 10:32:05;;;;;;;1.17;0.80;;;20.90;45.10;;;;;;6301170;28;20549;-51
2021/01/02 10:35:09;;;;;;;0.95;0.70;;;20.90;45.00;;;;;;6278942;28;20025;-49
2021/01/02 10:38:10;;;;;;;0.73;0.50;;;20.90;45.00;;;;;;6278021;28;20024;-48
2021/01/02 10:41:13;;;;;;;0.65;0.47;;;20.90;44.90;;;;;;6281130;28;20408;-49
2021/01/02 10:44:15;;;;;;;0.73;0.60;;;20.90;45.00;;;;;;6302686;28;20031;-48
2021/01/02 10:47:18;;;;;;;0.85;0.65;;;20.90;45.00;;;;;;6302498;28;20056;-50
2021/01/02 10:50:19;;;;;;;0.70;0.55;;;20.90;45.00;;;;;;6302942;28;20028;-48
2021/01/02 10:53:19;;;;;;;0.68;0.60;;;20.90;45.20;;;;;;6284499;28;20029;-50
2021/01/02 10:56:20;;;;;;;0.85;0.60;;;20.90;45.20;;;;;;6278683;28;20030;-49
2021/01/02 10:59:23;;;;;;;0.85;0.63;;;20.80;44.90;;;;;;6278681;28;20054;-53
2021/01/02 11:02:24;;;;;;;1.10;0.93;;;20.90;45.10;;;;;;6303507;28;20069;-51
2021/01/02 11:05:24;;;;;;;0.55;0.55;;;20.90;45.00;;;;;;6303042;28;20048;-49
2021/01/02 11:08:25;;;;;;;0.68;0.63;;;20.80;45.00;;;;;;6302786;28;20035;-48
2021/01/02 11:11:25;;;;;;;1.13;0.50;;;20.90;45.20;;;;;;6303277;28;20028;-49
2021/01/02 11:14:26;;;;;;;1.02;0.63;;;20.90;45.10;;;;;;6303078;28;20085;-51
2021/01/02 11:17:27;;;;;;;1.02;0.90;;;20.90;45.10;;;;;;6303507;28;20024;-49
2021/01/02 11:20:27;;;;;;;1.23;0.70;;;20.90;45.20;;;;;;6303092;28;20103;-49
2021/01/02 11:23:28;;;;;;;0.60;0.60;;;20.90;45.20;;;;;;6302847;28;20039;-51
2021/01/02 11:26:28;;;;;;;1.15;0.60;;;20.90;45.10;;;;;;6302678;28;20028;-49
2021/01/02 11:29:30;;;;;;;0.55;0.50;;;20.90;45.20;;;;;;6303100;28;20042;-51
2021/01/02 11:32:30;;;;;;;0.88;0.60;;;20.90;45.10;;;;;;6302674;28;20111;-49
2021/01/02 11:35:32;;;;;;;1.48;0.65;;;20.90;45.80;;;;;;6302554;28;20081;-52
2021/01/02 11:38:33;;;;;;;7.10;1.08;;;20.90;45.20;;;;;;6295768;28;20021;-55
2021/01/02 11:41:36;;;;;;;13.32;5.55;;;20.80;45.50;;;;;;6304346;28;20041;-52
2021/01/02 11:44:37;;;;;;;11.32;7.82;;;20.60;42.40;;;;;;6288600;28;20114;-48
2021/01/02 11:47:38;;;;;;;11.98;7.28;;;20.30;38.30;;;;;;6276501;28;20485;-49
2021/01/02 11:50:39;;;;;;;14.70;7.85;;;20.20;37.10;;;;;;6284045;28;20031;-51
2021/01/02 11:53:40;;;;;;;8.73;6.55;;;20.10;36.40;;;;;;6293585;28;20450;-50
2021/01/02 11:56:40;;;;;;;8.23;4.82;;;20.30;39.20;;;;;;6281216;28;20017;-64
2021/01/02 11:59:44;;;;;;;7.75;4.78;;;20.60;39.80;;;;;;6299651;28;20027;-68
2021/01/02 12:02:44;;;;;;;6.45;3.35;;;20.80;39.60;;;;;;6298571;28;20096;-66
2021/01/02 12:05:45;;;;;;;5.80;3.60;;;21.00;40.80;;;;;;6305590;28;20055;-51
2021/01/02 12:08:45;;;;;;;6.20;2.63;;;21.00;41.50;;;;;;6297849;28;20035;-53
2021/01/02 12:11:47;;;;;;;8.40;3.05;;;21.00;42.00;;;;;;6297067;28;20103;-52
2021/01/02 12:14:48;;;;;;;13.88;3.42;;;21.00;42.80;;;;;;6294436;28;20063;-48
2021/01/02 12:17:48;;;;;;;7.97;3.13;;;21.00;42.70;;;;;;6299403;28;20597;-49
2021/01/02 12:20:50;;;;;;;6.45;2.97;;;21.10;42.90;;;;;;6281518;28;20020;-47
2021/01/02 12:23:51;;;;;;;7.70;3.15;;;21.10;43.20;;;;;;6283532;28;20051;-48
2021/01/02 12:26:54;;;;;;;7.25;2.50;;;21.10;43.60;;;;;;6284720;28;20028;-48
2021/01/02 12:29:55;;;;;;;5.82;2.05;;;21.20;43.60;;;;;;6298850;28;20024;-49
2021/01/02 12:32:58;;;;;;;4.72;2.67;;;21.20;43.70;;;;;;6298018;28;20085;-50
2021/01/02 12:35:59;;;;;;;9.60;2.45;;;21.10;44.00;;;;;;6297632;28;20020;-50
2021/01/02 12:39:00;;;;;;;5.60;2.40;;;21.10;44.00;;;;;;6298191;28;20020;-49
2021/01/02 12:42:01;;;;;;;11.15;2.20;;;21.10;44.00;;;;;;6279865;28;20020;-50
2021/01/02 12:45:04;;;;;;;7.68;2.20;;;21.20;44.30;;;;;;6288142;28;20028;-50
2021/01/02 12:48:05;;;;;;;8.02;2.45;;;21.20;44.20;;;;;;6324638;28;20020;-48
2021/01/02 12:51:06;;;;;;;2.50;1.70;;;21.20;44.30;;;;;;6298362;28;20023;-49
2021/01/02 12:54:08;;;;;;;6.68;2.25;;;21.10;44.20;;;;;;6298984;28;20448;-50
2021/01/02 12:57:08;;;;;;;10.43;2.67;;;21.20;44.30;;;;;;6297396;28;20027;-53
2021/01/02 13:00:10;;;;;;;11.93;4.78;;;21.10;43.60;;;;;;6285261;28;20056;-49
2021/01/02 13:03:10;;;;;;;8.48;4.10;;;20.90;42.20;;;;;;6295524;28;20054;-50
2021/01/02 13:06:16;;;;;;;10.00;3.75;;;21.00;42.90;;;;;;6293951;28;20024;-50
2021/01/02 13:09:17;;;;;;;9.75;3.75;;;21.10;42.90;;;;;;6284992;28;20020;-66
2021/01/02 13:12:19;;;;;;;12.48;3.42;;;21.10;42.70;;;;;;6296949;28;20028;-49
2021/01/02 13:15:19;;;;;;;6.93;3.10;;;21.20;42.90;;;;;;6276395;28;20028;-52
2021/01/02 13:18:20;;;;;;;5.95;3.35;;;21.10;42.90;;;;;;6286554;28;20039;-49
2021/01/02 13:21:20;;;;;;;5.13;2.95;;;21.10;42.90;;;;;;6297076;28;20059;-50
2021/01/02 13:24:23;;;;;;;9.10;2.72;;;21.20;43.10;;;;;;6280766;28;20028;-54
2021/01/02 13:27:23;;;;;;;9.57;2.58;;;21.20;43.60;;;;;;6298377;28;20043;-48
2021/01/02 13:30:24;;;;;;;4.25;2.50;;;21.20;43.50;;;;;;6281582;28;20021;-50
2021/01/02 13:33:24;;;;;;;4.07;2.20;;;21.20;43.60;;;;;;6291838;28;20028;-52
2021/01/02 13:36:25;;;;;;;4.80;1.75;;;21.20;43.60;;;;;;6297467;28;20032;-48
2021/01/02 13:39:28;;;;;;;5.82;2.38;;;21.20;43.80;;;;;;6297578;28;20048;-50
2021/01/02 13:42:29;;;;;;;6.53;2.00;;;21.20;43.90;;;;;;6315859;28;20074;-51
2021/01/02 13:45:29;;;;;;;3.05;1.85;;;21.20;43.90;;;;;;6301551;28;20028;-48
2021/01/02 13:48:30;;;;;;;3.38;1.85;;;21.20;43.90;;;;;;6272328;28;20071;-49
2021/01/02 13:51:31;;;;;;;4.80;2.20;;;21.20;44.10;;;;;;6273467;28;20128;-58
2021/01/02 13:54:32;;;;;;;5.45;1.83;;;21.20;44.10;;;;;;6279559;28;20112;-55
2021/01/02 13:57:32;;;;;;;9.00;3.13;;;21.20;44.10;;;;;;6295784;28;20024;-55
2021/01/02 14:00:33;;;;;;;5.88;2.67;;;21.10;43.30;;;;;;6296929;28;20030;-49
2021/01/02 14:03:37;;;;;;;4.07;2.58;;;21.20;43.40;;;;;;6298578;28;20027;-53
2021/01/02 14:06:37;;;;;;;4.70;2.85;;;21.10;43.30;;;;;;6298134;28;20073;-53
2021/01/02 14:09:38;;;;;;;3.20;2.47;;;21.10;43.30;;;;;;6282500;28;20055;-49
2021/01/02 14:12:38;;;;;;;9.30;2.58;;;21.10;43.40;;;;;;6306336;28;20035;-55
2021/01/02 14:15:39;;;;;;;4.15;2.17;;;21.10;43.50;;;;;;6296217;28;20042;-53
2021/01/02 14:18:40;;;;;;;4.00;2.40;;;21.10;43.60;;;;;;6297427;28;20123;-49
2021/01/02 14:21:45;;;;;;;2.53;1.70;;;21.10;43.60;;;;;;6283791;28;20050;-51
2021/01/02 14:24:47;;;;;;;19.83;2.67;;;21.10;43.90;;;;;;6276890;28;20037;-62
2021/01/02 14:27:48;;;;;;;28.38;2.40;;;21.20;44.00;;;;;;6278817;28;20039;-51
2021/01/02 14:30:48;;;;;;;4.72;1.70;;;21.20;43.60;;;;;;6296807;28;20271;-51
2021/01/02 14:33:49;;;;;;;8.18;2.03;;;21.20;43.90;;;;;;6300312;28;20031;-48
2021/01/02 14:36:54;;;;;;;10.82;2.05;;;21.20;44.00;;;;;;6298382;28;20025;-54
2021/01/02 14:39:55;;;;;;;4.05;1.90;;;21.10;44.10;;;;;;6297067;28;20031;-53
2021/01/02 14:42:55;;;;;;;3.08;1.65;;;21.10;44.00;;;;;;6298427;28;20021;-49
2021/01/02 14:45:56;;;;;;;3.58;1.90;;;21.10;44.10;;;;;;6300375;28;20026;-50
2021/01/02 14:48:57;;;;;;;3.35;2.00;;;21.10;44.10;;;;;;6283712;28;20021;-51
2021/01/02 14:51:58;;;;;;;6.32;1.80;;;21.20;44.20;;;;;;6275685;28;20025;-51
2021/01/02 14:54:58;;;;;;;3.72;1.70;;;21.10;44.40;;;;;;6305482;28;20024;-53
2021/01/02 14:57:59;;;;;;;4.72;2.20;;;21.10;44.20;;;;;;6300066;28;20035;-55
2021/01/02 15:01:00;;;;;;;5.40;1.90;;;21.10;44.20;;;;;;6305911;28;20505;-48
2021/01/02 15:04:00;;;;;;;3.47;1.38;;;21.20;44.30;;;;;;6294713;28;20032;-51
2021/01/02 15:07:01;;;;;;;2.20;1.63;;;21.10;44.30;;;;;;6300653;28;20473;-55
2021/01/02 15:10:04;;;;;;;2.38;1.50;;;21.10;44.40;;;;;;6293534;28;20031;-51
2021/01/02 15:13:04;;;;;;;1.65;1.33;;;21.10;44.20;;;;;;6290986;28;20099;-49
2021/01/02 15:16:05;;;;;;;1.48;1.25;;;21.10;44.40;;;;;;6286616;28;20063;-55
2021/01/02 15:19:06;;;;;;;2.50;1.60;;;21.10;44.30;;;;;;6275543;28;20067;-48
2021/01/02 15:22:06;;;;;;;6.25;1.50;;;21.10;44.30;;;;;;6275287;28;20031;-47
2021/01/02 15:25:08;;;;;;;3.50;1.52;;;21.10;44.50;;;;;;6285124;28;20111;-51
2021/01/02 15:28:08;;;;;;;2.30;1.52;;;21.10;44.60;;;;;;6275806;28;20040;-52
2021/01/02 15:31:09;;;;;;;5.65;1.48;;;21.10;44.60;;;;;;6275486;28;20032;-52
2021/01/02 15:34:13;;;;;;;10.93;1.50;;;21.10;44.60;;;;;;6303607;28;20529;-52
2021/01/02 15:37:13;;;;;;;4.72;1.70;;;21.20;44.70;;;;;;6289398;28;20024;-52
2021/01/02 15:40:14;;;;;;;6.47;1.60;;;21.10;44.70;;;;;;6280224;28;20073;-50
2021/01/02 15:43:15;;;;;;;3.35;1.70;;;21.10;44.60;;;;;;6304024;28;20050;-54
2021/01/02 15:46:15;;;;;;;7.32;1.92;;;21.10;44.70;;;;;;6306467;28;20581;-56
2021/01/02 15:49:18;;;;;;;5.18;1.55;;;21.10;44.70;;;;;;6290559;28;20051;-51
2021/01/02 15:52:22;;;;;;;4.78;1.65;;;21.10;44.80;;;;;;6296598;28;20063;-49
2021/01/02 15:55:22;;;;;;;3.28;1.50;;;21.10;44.90;;;;;;6274326;28;20029;-51
2021/01/02 15:58:23;;;;;;;12.95;1.40;;;21.10;44.80;;;;;;6302594;28;20097;-52